createdAt,value
2023-08-07T00:01:28.662Z,1.00
2023-08-07T00:04:32.344Z,0.70
2023-08-07T00:07:35.773Z,1.92
2023-08-07T00:10:39.132Z,2.43
2023-08-07T00:13:42.497Z,2.73
2023-08-07T00:16:46.319Z,1.52
2023-08-07T00:19:49.733Z,1.40
2023-08-07T00:22:53.144Z,0.82
2023-08-07T00:25:56.538Z,1.20
2023-08-07T00:28:59.974Z,3.93
2023-08-07T00:32:03.883Z,1.02
2023-08-07T00:35:09.475Z,1.70
2023-08-07T00:38:12.854Z,1.67
2023-08-07T00:41:18.033Z,1.87
2023-08-07T00:44:21.437Z,1.20
2023-08-07T00:47:24.816Z,1.40
2023-08-07T00:50:41.610Z,1.25
2023-08-07T00:53:50.635Z,0.93
2023-08-07T00:56:54.464Z,1.53
2023-08-07T00:59:58.840Z,1.30
2023-08-07T01:03:02.730Z,1.65
2023-08-07T01:06:06.191Z,5.93
2023-08-07T01:09:09.690Z,1.60
2023-08-07T01:12:21.173Z,2.37
2023-08-07T01:15:31.605Z,1.53
2023-08-07T01:18:37.687Z,1.15
2023-08-07T01:21:41.592Z,1.20
2023-08-07T01:24:47.927Z,2.05
2023-08-07T01:28:07.910Z,2.57
2023-08-07T01:31:15.872Z,1.27
2023-08-07T01:34:23.010Z,0.88
2023-08-07T01:37:29.374Z,2.88
2023-08-07T01:40:33.528Z,0.88
2023-08-07T01:43:37.128Z,2.07
2023-08-07T01:46:40.515Z,2.83
2023-08-07T01:49:44.035Z,2.55
2023-08-07T01:52:50.809Z,2.45
2023-08-07T01:55:54.239Z,1.48
2023-08-07T01:58:57.579Z,1.73
2023-08-07T02:02:01.076Z,1.90
2023-08-07T02:05:05.646Z,2.28
2023-08-07T02:08:08.985Z,2.50
2023-08-07T02:11:12.337Z,4.28
2023-08-07T02:14:15.744Z,1.20
2023-08-07T02:17:21.705Z,1.47
2023-08-07T02:20:25.447Z,1.05
2023-08-07T02:23:30.241Z,1.10
2023-08-07T02:26:33.637Z,2.45
2023-08-07T02:29:37.163Z,2.50
2023-08-07T02:32:42.734Z,0.80
2023-08-07T02:35:46.862Z,1.15
2023-08-07T02:38:50.330Z,1.85
2023-08-07T02:41:53.970Z,0.95
2023-08-07T02:44:57.309Z,1.20
2023-08-07T02:48:00.750Z,3.17
2023-08-07T02:51:04.212Z,1.48
2023-08-07T02:54:07.634Z,2.22
2023-08-07T02:57:11.009Z,1.83
2023-08-07T03:00:15.078Z,1.00
2023-08-07T03:03:18.664Z,1.23
2023-08-07T03:06:22.132Z,2.15
2023-08-07T03:09:25.613Z,1.20
2023-08-07T03:12:28.960Z,1.30
2023-08-07T03:15:32.372Z,2.77
2023-08-07T03:18:36.167Z,1.97
2023-08-07T03:21:40.060Z,1.95
2023-08-07T03:24:49.198Z,2.95
2023-08-07T03:27:52.664Z,3.13
2023-08-07T03:30:56.287Z,1.70
2023-08-07T03:34:00.163Z,1.40
2023-08-07T03:37:05.033Z,1.40
2023-08-07T03:40:09.151Z,2.13
2023-08-07T03:43:12.962Z,2.70
2023-08-07T03:46:17.733Z,1.93
2023-08-07T03:49:21.134Z,1.83
2023-08-07T03:52:24.652Z,2.15
2023-08-07T03:55:28.264Z,3.25
2023-08-07T03:58:32.132Z,1.98
2023-08-07T04:01:35.667Z,1.57
2023-08-07T04:04:39.240Z,1.33
2023-08-07T04:07:42.632Z,1.50
2023-08-07T04:10:46.029Z,1.90
2023-08-07T04:13:49.474Z,3.47
2023-08-07T04:16:52.862Z,2.47
2023-08-07T04:19:56.253Z,2.33
2023-08-07T04:22:59.590Z,1.35
2023-08-07T04:26:03.584Z,2.05
2023-08-07T04:29:07.702Z,2.05
2023-08-07T04:32:11.236Z,2.00
2023-08-07T04:35:14.760Z,1.77
2023-08-07T04:38:18.774Z,2.03
2023-08-07T04:41:22.437Z,3.10
2023-08-07T04:44:25.863Z,2.35
2023-08-07T04:47:29.871Z,3.27
2023-08-07T04:50:33.258Z,1.90
2023-08-07T04:53:36.609Z,2.65
2023-08-07T04:56:39.981Z,3.28
2023-08-07T04:59:43.330Z,2.15
2023-08-07T05:02:46.787Z,2.70
2023-08-07T05:05:50.259Z,3.97
2023-08-07T05:08:53.551Z,4.63
2023-08-07T05:11:57.318Z,9.13
2023-08-07T05:15:00.864Z,7.07
2023-08-07T05:18:04.288Z,5.60
2023-08-07T05:21:10.164Z,8.13
2023-08-07T05:24:13.604Z,6.05
2023-08-07T05:27:17.427Z,6.40
2023-08-07T05:30:20.815Z,7.32
2023-08-07T05:33:24.164Z,7.13
2023-08-07T05:36:27.810Z,7.93
2023-08-07T05:39:31.135Z,8.23
2023-08-07T05:42:35.539Z,9.10
2023-08-07T05:45:38.968Z,7.53
2023-08-07T05:48:42.239Z,8.93
2023-08-07T05:51:46.257Z,10.27
2023-08-07T05:54:49.619Z,9.70
2023-08-07T05:57:52.962Z,6.47
2023-08-07T06:00:56.320Z,8.20
2023-08-07T06:04:00.246Z,7.73
2023-08-07T06:07:03.785Z,5.10
2023-08-07T06:10:08.051Z,6.50
2023-08-07T06:13:19.837Z,4.20
2023-08-07T06:16:30.385Z,3.53
2023-08-07T06:19:34.130Z,7.73
2023-08-07T06:22:37.561Z,4.70
2023-08-07T06:25:40.925Z,3.70
2023-08-07T06:28:44.867Z,3.70
2023-08-07T06:31:48.553Z,5.88
2023-08-07T06:34:52.072Z,7.20
2023-08-07T06:37:55.522Z,6.97
2023-08-07T06:40:59.311Z,4.22
2023-08-07T06:44:02.685Z,3.55
2023-08-07T06:47:07.492Z,4.35
2023-08-07T06:50:11.768Z,5.67
2023-08-07T06:53:15.169Z,5.20
2023-08-07T06:56:19.115Z,3.10
2023-08-07T06:59:22.435Z,4.82
2023-08-07T07:02:25.841Z,4.25
2023-08-07T07:05:29.361Z,3.60
2023-08-07T07:08:32.710Z,3.50
2023-08-07T07:11:36.217Z,4.25
2023-08-07T07:14:39.619Z,2.78
2023-08-07T07:17:43.080Z,4.00
2023-08-07T07:20:46.445Z,3.50
2023-08-07T07:23:49.792Z,5.30
2023-08-07T07:26:53.191Z,3.85
2023-08-07T07:29:56.620Z,3.50
2023-08-07T07:33:00.113Z,5.22
2023-08-07T07:36:03.942Z,3.92
2023-08-07T07:39:07.462Z,3.00
2023-08-07T07:42:10.891Z,3.20
2023-08-07T07:45:14.267Z,4.63
2023-08-07T07:48:17.572Z,4.32
2023-08-07T07:51:21.045Z,4.28
2023-08-07T07:54:24.415Z,3.13
2023-08-07T07:57:27.781Z,2.40
2023-08-07T08:00:31.236Z,2.88
2023-08-07T08:03:34.771Z,2.75
2023-08-07T08:06:39.205Z,2.17
2023-08-07T08:09:43.022Z,3.20
2023-08-07T08:12:46.397Z,4.43
2023-08-07T08:15:49.725Z,5.38
2023-08-07T08:18:53.130Z,4.15
2023-08-07T08:21:57.216Z,7.50
2023-08-07T08:25:00.775Z,5.07
2023-08-07T08:28:04.661Z,4.50
2023-08-07T08:31:07.985Z,5.65
2023-08-07T08:34:11.369Z,3.38
2023-08-07T08:37:14.760Z,5.43
2023-08-07T08:40:18.747Z,2.77
2023-08-07T08:43:22.727Z,3.55
2023-08-07T08:46:29.263Z,2.70
2023-08-07T08:49:37.393Z,3.67
2023-08-07T08:52:44.428Z,3.07
2023-08-07T08:55:48.613Z,3.97
2023-08-07T08:58:54.980Z,2.97
2023-08-07T09:01:58.471Z,2.22
2023-08-07T09:05:01.858Z,2.60
2023-08-07T09:08:06.484Z,3.83
2023-08-07T09:11:11.640Z,2.13
2023-08-07T09:14:21.606Z,2.75
2023-08-07T09:17:29.090Z,4.30
2023-08-07T09:20:32.763Z,2.75
2023-08-07T09:23:36.112Z,3.13
2023-08-07T09:26:44.451Z,5.27
2023-08-07T09:29:49.621Z,3.40
2023-08-07T09:32:53.036Z,3.67
2023-08-07T09:36:03.879Z,6.82
2023-08-07T09:39:07.336Z,4.00
2023-08-07T09:42:17.773Z,3.00
2023-08-07T09:45:27.944Z,3.22
2023-08-07T09:48:31.280Z,3.15
2023-08-07T09:51:45.349Z,2.45
2023-08-07T09:54:48.822Z,2.27
2023-08-07T09:57:52.807Z,1.77
2023-08-07T10:01:00.857Z,1.73
2023-08-07T10:04:04.682Z,1.67
2023-08-07T10:07:08.166Z,1.25
2023-08-07T10:10:12.102Z,2.43
2023-08-07T10:13:18.270Z,2.50
2023-08-07T10:16:22.408Z,1.83
2023-08-07T10:19:25.908Z,1.90
2023-08-07T10:22:34.627Z,2.42
2023-08-07T10:25:41.292Z,2.83
2023-08-07T10:28:45.321Z,2.67
2023-08-07T10:31:51.346Z,1.58
2023-08-07T10:34:55.087Z,1.95
2023-08-07T10:38:09.128Z,3.70
2023-08-07T10:41:14.976Z,2.63
2023-08-07T10:44:25.077Z,4.80
2023-08-07T10:47:37.651Z,2.03
2023-08-07T10:50:56.099Z,3.35
2023-08-07T10:54:02.057Z,2.33
2023-08-07T10:57:10.952Z,2.30
2023-08-07T11:00:14.975Z,2.07
2023-08-07T11:03:37.816Z,2.25
2023-08-07T11:06:42.623Z,1.10
2023-08-07T11:09:46.262Z,2.20
2023-08-07T11:12:50.871Z,1.53
2023-08-07T11:15:54.615Z,1.30
2023-08-07T11:18:58.066Z,1.65
2023-08-07T11:22:03.267Z,2.53
2023-08-07T11:25:11.116Z,5.47
2023-08-07T11:28:14.442Z,1.20
2023-08-07T11:31:20.167Z,2.47
2023-08-07T11:34:23.708Z,2.53
2023-08-07T11:37:27.090Z,1.55
2023-08-07T11:40:30.459Z,2.13
2023-08-07T11:43:35.343Z,2.97
2023-08-07T11:46:38.804Z,2.57
2023-08-07T11:49:42.145Z,2.25
2023-08-07T11:52:45.589Z,3.17
2023-08-07T11:55:53.652Z,2.13
2023-08-07T11:58:58.265Z,2.67
2023-08-07T12:02:12.973Z,1.47
2023-08-07T12:05:16.477Z,3.60
2023-08-07T12:08:20.203Z,3.60
2023-08-07T12:11:23.713Z,2.40
2023-08-07T12:14:31.292Z,2.37
2023-08-07T12:17:34.534Z,3.80
2023-08-07T12:20:37.865Z,3.08
2023-08-07T12:23:43.283Z,3.60
2023-08-07T12:26:48.072Z,4.57
2023-08-07T12:29:51.428Z,6.33
2023-08-07T12:32:54.760Z,2.77
2023-08-07T12:35:59.418Z,2.85
2023-08-07T12:39:02.838Z,1.90
2023-08-07T12:45:15.222Z,2.10
2023-08-07T12:48:19.732Z,5.13
2023-08-07T12:51:23.180Z,2.72
2023-08-07T12:54:26.585Z,2.53
2023-08-07T12:57:29.933Z,3.80
2023-08-07T13:00:33.647Z,1.77
2023-08-07T13:03:37.077Z,1.83
2023-08-07T13:06:40.554Z,1.65
2023-08-07T13:09:44.134Z,2.75
2023-08-07T13:12:50.552Z,1.27
2023-08-07T13:15:55.644Z,2.40
2023-08-07T13:18:59.367Z,1.40
2023-08-07T13:22:02.733Z,0.73
2023-08-07T13:25:06.516Z,1.63
2023-08-07T13:28:09.905Z,1.23
2023-08-07T13:31:13.312Z,3.67
2023-08-07T13:34:16.759Z,3.17
2023-08-07T13:37:20.241Z,2.40
2023-08-07T13:40:23.661Z,1.00
2023-08-07T13:43:26.969Z,3.28
2023-08-07T13:46:31.556Z,2.10
2023-08-07T13:49:35.630Z,1.83
2023-08-07T13:52:39.036Z,1.20
2023-08-07T13:55:42.555Z,0.68
2023-08-07T13:58:45.929Z,1.00
2023-08-07T14:01:49.300Z,5.37
2023-08-07T14:04:52.705Z,2.47
2023-08-07T14:07:58.260Z,1.63
2023-08-07T14:11:01.614Z,4.53
2023-08-07T14:14:05.020Z,5.50
2023-08-07T14:17:08.628Z,2.30
2023-08-07T14:20:12.657Z,0.57
2023-08-07T14:23:21.681Z,4.18
2023-08-07T14:26:25.356Z,2.17
2023-08-07T14:29:28.794Z,3.55
2023-08-07T14:32:32.219Z,1.37
2023-08-07T14:35:35.706Z,2.40
2023-08-07T14:38:39.063Z,4.78
2023-08-07T14:41:42.592Z,2.08
2023-08-07T14:44:45.923Z,3.40
2023-08-07T14:47:49.345Z,1.63
2023-08-07T14:50:53.068Z,2.00
2023-08-07T14:53:56.521Z,1.17
2023-08-07T14:56:59.996Z,1.17
2023-08-07T15:00:04.810Z,1.17
2023-08-07T15:03:08.284Z,2.07
2023-08-07T15:06:11.653Z,2.83
2023-08-07T15:09:15.294Z,4.25
2023-08-07T15:12:18.699Z,1.83
2023-08-07T15:15:22.067Z,4.57
2023-08-07T15:18:25.504Z,2.20
2023-08-07T15:21:28.845Z,0.80
2023-08-07T15:24:32.165Z,3.45
2023-08-07T15:27:35.468Z,3.13
2023-08-07T15:30:38.836Z,1.95
2023-08-07T15:33:43.521Z,1.87
2023-08-07T15:36:46.961Z,1.40
2023-08-07T15:39:50.421Z,1.95
2023-08-07T15:42:53.811Z,0.60
2023-08-07T15:45:57.178Z,1.88
2023-08-07T15:49:00.571Z,1.13
2023-08-07T15:52:04.128Z,1.50
2023-08-07T15:55:07.899Z,1.35
2023-08-07T15:58:11.265Z,4.95
2023-08-07T16:01:14.759Z,2.08
2023-08-07T16:04:18.218Z,2.13
2023-08-07T16:07:21.691Z,1.50
2023-08-07T16:10:26.390Z,2.35
2023-08-07T16:13:29.847Z,1.67
2023-08-07T16:16:33.284Z,0.75
2023-08-07T16:19:36.609Z,1.47
2023-08-07T16:22:40.266Z,1.10
2023-08-07T16:25:43.668Z,1.35
2023-08-07T16:28:47.132Z,0.85
2023-08-07T16:31:52.250Z,2.00
2023-08-07T16:34:58.216Z,2.27
2023-08-07T16:38:01.665Z,0.67
2023-08-07T16:41:05.033Z,1.63
2023-08-07T16:44:08.569Z,0.73
2023-08-07T16:47:12.096Z,1.38
2023-08-07T16:50:15.542Z,1.80
2023-08-07T16:53:18.936Z,1.47
2023-08-07T16:56:22.414Z,1.10
2023-08-07T16:59:26.112Z,2.13
2023-08-07T17:02:29.514Z,1.00
2023-08-07T17:05:33.059Z,1.43
2023-08-07T17:08:37.912Z,1.57
2023-08-07T17:11:41.461Z,0.85
2023-08-07T17:14:44.818Z,3.10
2023-08-07T17:17:48.161Z,1.15
2023-08-07T17:20:51.537Z,1.10
2023-08-07T17:23:55.047Z,2.67
2023-08-07T17:26:58.709Z,1.05
2023-08-07T17:30:02.302Z,0.70
2023-08-07T17:33:06.615Z,1.25
2023-08-07T17:36:10.048Z,3.70
2023-08-07T17:39:13.479Z,1.37
2023-08-07T17:42:16.888Z,1.35
2023-08-07T17:45:20.292Z,0.93
2023-08-07T17:48:23.681Z,1.27
2023-08-07T17:51:27.335Z,1.43
2023-08-07T17:54:30.798Z,1.10
2023-08-07T17:57:34.188Z,1.10
2023-08-07T18:00:38.039Z,2.53
2023-08-07T18:03:41.856Z,0.73
2023-08-07T18:06:45.296Z,3.43
2023-08-07T18:09:48.757Z,1.87
2023-08-07T18:12:52.107Z,1.02
2023-08-07T18:15:55.489Z,1.70
2023-08-07T18:18:59.249Z,1.70
2023-08-07T18:22:02.627Z,1.20
2023-08-07T18:25:06.705Z,1.00
2023-08-07T18:28:10.158Z,0.93
2023-08-07T18:31:13.630Z,0.95
2023-08-07T18:34:18.082Z,1.85
2023-08-07T18:37:21.598Z,1.07
2023-08-07T18:40:24.981Z,3.37
2023-08-07T18:43:28.327Z,2.05
2023-08-07T18:46:31.700Z,2.42
2023-08-07T18:49:35.148Z,1.02
2023-08-07T18:52:38.542Z,2.53
2023-08-07T18:55:41.890Z,0.90
2023-08-07T18:58:45.185Z,1.25
2023-08-07T19:01:48.733Z,2.75
2023-08-07T19:04:52.120Z,2.28
2023-08-07T19:07:55.494Z,1.27
2023-08-07T19:10:59.005Z,2.80
2023-08-07T19:14:02.986Z,1.98
2023-08-07T19:17:08.993Z,2.60
2023-08-07T19:20:13.420Z,5.05
2023-08-07T19:23:16.910Z,1.10
2023-08-07T19:26:20.321Z,1.80
2023-08-07T19:29:23.781Z,1.33
2023-08-07T19:32:28.141Z,0.93
2023-08-07T19:35:31.561Z,1.17
2023-08-07T19:38:34.941Z,1.07
2023-08-07T19:41:38.264Z,2.90
2023-08-07T19:44:43.986Z,1.20
2023-08-07T19:47:49.314Z,1.65
2023-08-07T19:50:58.960Z,1.58
2023-08-07T19:54:02.685Z,3.80
2023-08-07T19:57:06.328Z,1.57
2023-08-07T20:00:10.944Z,1.45
2023-08-07T20:03:15.060Z,1.83
2023-08-07T20:06:18.447Z,1.55
2023-08-07T20:09:21.866Z,1.20
2023-08-07T20:12:25.264Z,3.17
2023-08-07T20:15:28.643Z,1.17
2023-08-07T20:18:32.077Z,1.17
2023-08-07T20:21:35.637Z,0.85
2023-08-07T20:24:38.999Z,2.27
2023-08-07T20:27:42.398Z,1.30
2023-08-07T20:30:45.764Z,1.10
2023-08-07T20:33:49.184Z,1.38
2023-08-07T20:36:52.604Z,2.05
2023-08-07T20:39:55.983Z,1.87
2023-08-07T20:43:00.326Z,1.73
2023-08-07T20:46:03.683Z,1.65
2023-08-07T20:49:07.094Z,1.63
2023-08-07T20:52:10.807Z,0.88
2023-08-07T20:55:14.208Z,3.30
2023-08-07T20:58:17.876Z,1.80
2023-08-07T21:01:21.452Z,1.48
2023-08-07T21:04:27.087Z,1.15
2023-08-07T21:07:30.684Z,1.20
2023-08-07T21:10:34.335Z,2.57
2023-08-07T21:13:39.227Z,1.90
2023-08-07T21:16:45.631Z,2.38
2023-08-07T21:19:49.641Z,1.25
2023-08-07T21:22:54.775Z,1.80
2023-08-07T21:25:58.440Z,1.20
2023-08-07T21:29:02.688Z,1.47
2023-08-07T21:32:07.829Z,1.40
2023-08-07T21:35:12.206Z,1.55
2023-08-07T21:38:15.779Z,2.63
2023-08-07T21:41:19.435Z,2.10
2023-08-07T21:44:23.019Z,2.10
2023-08-07T21:47:26.561Z,4.28
2023-08-07T21:50:30.201Z,2.40
2023-08-07T21:53:33.808Z,1.35
2023-08-07T21:56:38.679Z,2.17
2023-08-07T21:59:42.215Z,2.63
2023-08-07T22:02:48.070Z,3.03
2023-08-07T22:06:10.411Z,2.72
2023-08-07T22:09:13.961Z,2.45
2023-08-07T22:12:17.522Z,1.57
2023-08-07T22:15:21.188Z,2.23
2023-08-07T22:18:25.066Z,1.77
2023-08-07T22:21:28.808Z,1.25
2023-08-07T22:24:32.362Z,1.80
2023-08-07T22:27:35.803Z,1.23
2023-08-07T22:30:39.204Z,3.97
2023-08-07T22:33:42.688Z,2.63
2023-08-07T22:36:46.141Z,2.72
2023-08-07T22:39:49.472Z,3.75
2023-08-07T22:42:52.867Z,4.53
2023-08-07T22:45:56.379Z,2.73
2023-08-07T22:48:59.755Z,2.25
2023-08-07T22:52:03.319Z,3.67
2023-08-07T22:55:07.598Z,3.20
2023-08-07T22:58:11.242Z,2.97
2023-08-07T23:01:14.636Z,2.03
2023-08-07T23:04:17.981Z,2.30
2023-08-07T23:07:21.668Z,4.03
2023-08-07T23:10:25.019Z,2.50
2023-08-07T23:13:28.416Z,3.73
2023-08-07T23:16:31.800Z,2.50
2023-08-07T23:19:35.190Z,3.03
2023-08-07T23:22:38.657Z,3.05
2023-08-07T23:25:42.052Z,2.33
2023-08-07T23:28:45.417Z,2.20
2023-08-07T23:31:48.775Z,4.10
2023-08-07T23:34:52.211Z,3.72
2023-08-07T23:37:55.599Z,3.35
2023-08-07T23:40:58.960Z,5.38
2023-08-07T23:44:02.357Z,3.13
2023-08-07T23:47:06.151Z,2.57
2023-08-07T23:50:10.052Z,2.60
2023-08-07T23:53:13.448Z,2.83
2023-08-07T23:56:16.984Z,3.72
2023-08-07T23:59:20.395Z,5.10
